Terminal Aerodrome Forecast
Issued by NWS

Current Version | Previous Version | Text Only | Print | Product List | Glossary On
Versions: 1 2 3 4 5 6 7 8 9 10 11 12 13 14 15
000
FTUS44 KEPZ 061747
TAFDMN
TAF
KDMN 061747Z 0618/0718 30010G20KT P6SM SCT060 BKN120 BKN200
     FM062000 29010G20KT P6SM VCTS SCT070CB BKN120
     FM070600 28010KT P6SM VCTS SCT060CB BKN120 BKN250
     FM071400 04010KT P6SM VCTS BKN050CB BKN100 BKN200=

USA.gov is the U.S. government's official web portal to all federal, state and local government web resources and services.